sensor_id;sensor_type;location;lat;lon;timestamp;P1;durP1;ratioP1;P2;durP2;ratioP2
53040;SDS011;39326;42.650;23.248;2023-05-21T00:01:39;12.53;;;11.27;;
53040;SDS011;39326;42.650;23.248;2023-05-21T00:04:04;10.57;;;9.53;;
53040;SDS011;39326;42.650;23.248;2023-05-21T00:06:32;11.93;;;10.67;;
53040;SDS011;39326;42.650;23.248;2023-05-21T00:09:00;12.30;;;11.20;;
53040;SDS011;39326;42.650;23.248;2023-05-21T00:11:26;12.13;;;11.13;;
53040;SDS011;39326;42.650;23.248;2023-05-21T00:13:52;13.07;;;11.83;;
53040;SDS011;39326;42.650;23.248;2023-05-21T00:16:17;12.33;;;11.13;;
53040;SDS011;39326;42.650;23.248;2023-05-21T00:18:42;12.30;;;11.30;;
53040;SDS011;39326;42.650;23.248;2023-05-21T00:21:08;13.10;;;11.93;;
53040;SDS011;39326;42.650;23.248;2023-05-21T00:23:34;12.97;;;11.67;;
53040;SDS011;39326;42.650;23.248;2023-05-21T00:26:01;12.83;;;11.27;;
53040;SDS011;39326;42.650;23.248;2023-05-21T00:28:27;13.33;;;12.13;;
53040;SDS011;39326;42.650;23.248;2023-05-21T00:30:52;12.20;;;11.10;;
53040;SDS011;39326;42.650;23.248;2023-05-21T00:33:18;13.00;;;11.80;;
53040;SDS011;39326;42.650;23.248;2023-05-21T00:35:45;15.07;;;13.63;;
53040;SDS011;39326;42.650;23.248;2023-05-21T00:38:11;13.20;;;11.90;;
53040;SDS011;39326;42.650;23.248;2023-05-21T00:40:36;13.77;;;12.33;;
53040;SDS011;39326;42.650;23.248;2023-05-21T00:43:05;13.67;;;12.43;;
53040;SDS011;39326;42.650;23.248;2023-05-21T00:45:32;12.53;;;11.30;;
53040;SDS011;39326;42.650;23.248;2023-05-21T00:47:57;13.73;;;12.43;;
53040;SDS011;39326;42.650;23.248;2023-05-21T00:50:23;14.23;;;12.90;;
53040;SDS011;39326;42.650;23.248;2023-05-21T00:52:50;14.87;;;13.60;;
53040;SDS011;39326;42.650;23.248;2023-05-21T00:55:15;12.57;;;11.53;;
53040;SDS011;39326;42.650;23.248;2023-05-21T00:57:41;12.67;;;11.37;;
53040;SDS011;39326;42.650;23.248;2023-05-21T01:00:07;13.37;;;12.10;;
53040;SDS011;39326;42.650;23.248;2023-05-21T01:02:35;12.87;;;11.77;;
53040;SDS011;39326;42.650;23.248;2023-05-21T01:05:01;12.07;;;10.93;;
53040;SDS011;39326;42.650;23.248;2023-05-21T01:07:33;14.10;;;12.70;;
53040;SDS011;39326;42.650;23.248;2023-05-21T01:10:02;13.10;;;11.80;;
53040;SDS011;39326;42.650;23.248;2023-05-21T01:12:28;12.27;;;11.17;;
53040;SDS011;39326;42.650;23.248;2023-05-21T01:14:56;13.30;;;11.90;;
53040;SDS011;39326;42.650;23.248;2023-05-21T01:17:23;11.80;;;9.83;;
53040;SDS011;39326;42.650;23.248;2023-05-21T01:19:50;11.97;;;10.77;;
53040;SDS011;39326;42.650;23.248;2023-05-21T01:22:16;10.37;;;9.47;;
53040;SDS011;39326;42.650;23.248;2023-05-21T01:24:45;11.27;;;10.20;;
53040;SDS011;39326;42.650;23.248;2023-05-21T01:27:11;11.53;;;10.50;;
53040;SDS011;39326;42.650;23.248;2023-05-21T01:29:37;11.60;;;10.40;;
53040;SDS011;39326;42.650;23.248;2023-05-21T01:34:39;11.00;;;10.00;;
53040;SDS011;39326;42.650;23.248;2023-05-21T01:37:12;10.67;;;9.57;;
53040;SDS011;39326;42.650;23.248;2023-05-21T01:39:51;10.53;;;9.53;;
53040;SDS011;39326;42.650;23.248;2023-05-21T01:42:21;10.40;;;9.50;;
53040;SDS011;39326;42.650;23.248;2023-05-21T01:44:49;10.33;;;9.23;;
53040;SDS011;39326;42.650;23.248;2023-05-21T01:47:19;10.90;;;9.90;;
53040;SDS011;39326;42.650;23.248;2023-05-21T01:49:47;9.77;;;8.83;;
53040;SDS011;39326;42.650;23.248;2023-05-21T01:52:14;9.60;;;8.70;;
53040;SDS011;39326;42.650;23.248;2023-05-21T01:54:40;9.23;;;8.50;;
53040;SDS011;39326;42.650;23.248;2023-05-21T01:57:05;9.50;;;8.70;;
53040;SDS011;39326;42.650;23.248;2023-05-21T01:59:30;8.93;;;8.07;;
53040;SDS011;39326;42.650;23.248;2023-05-21T02:01:57;10.07;;;8.97;;
53040;SDS011;39326;42.650;23.248;2023-05-21T02:04:22;9.17;;;8.33;;
53040;SDS011;39326;42.650;23.248;2023-05-21T02:06:48;10.77;;;8.77;;
53040;SDS011;39326;42.650;23.248;2023-05-21T02:09:13;11.30;;;8.60;;
53040;SDS011;39326;42.650;23.248;2023-05-21T02:11:38;9.13;;;8.27;;
53040;SDS011;39326;42.650;23.248;2023-05-21T02:14:04;8.50;;;7.70;;
53040;SDS011;39326;42.650;23.248;2023-05-21T02:16:30;9.20;;;8.23;;
53040;SDS011;39326;42.650;23.248;2023-05-21T02:18:55;8.80;;;8.00;;
53040;SDS011;39326;42.650;23.248;2023-05-21T02:21:22;9.27;;;8.37;;
53040;SDS011;39326;42.650;23.248;2023-05-21T02:23:47;8.23;;;7.27;;
53040;SDS011;39326;42.650;23.248;2023-05-21T02:26:13;9.50;;;8.50;;
53040;SDS011;39326;42.650;23.248;2023-05-21T02:28:38;8.53;;;7.73;;
53040;SDS011;39326;42.650;23.248;2023-05-21T02:31:04;8.97;;;8.17;;
53040;SDS011;39326;42.650;23.248;2023-05-21T02:33:30;9.10;;;8.37;;
53040;SDS011;39326;42.650;23.248;2023-05-21T02:35:55;11.03;;;10.00;;
53040;SDS011;39326;42.650;23.248;2023-05-21T02:38:21;10.47;;;9.47;;
53040;SDS011;39326;42.650;23.248;2023-05-21T02:40:47;12.83;;;11.53;;
53040;SDS011;39326;42.650;23.248;2023-05-21T02:43:16;13.57;;;12.37;;
53040;SDS011;39326;42.650;23.248;2023-05-21T02:45:41;13.20;;;11.87;;
53040;SDS011;39326;42.650;23.248;2023-05-21T02:48:06;12.13;;;11.10;;
53040;SDS011;39326;42.650;23.248;2023-05-21T02:50:32;12.27;;;11.13;;
53040;SDS011;39326;42.650;23.248;2023-05-21T02:52:57;11.60;;;10.57;;
53040;SDS011;39326;42.650;23.248;2023-05-21T02:55:26;11.90;;;10.70;;
53040;SDS011;39326;42.650;23.248;2023-05-21T02:57:51;12.77;;;11.53;;
53040;SDS011;39326;42.650;23.248;2023-05-21T03:00:16;11.60;;;10.50;;
53040;SDS011;39326;42.650;23.248;2023-05-21T03:02:42;12.50;;;11.20;;
53040;SDS011;39326;42.650;23.248;2023-05-21T03:05:08;14.00;;;12.70;;
53040;SDS011;39326;42.650;23.248;2023-05-21T03:07:33;13.40;;;12.10;;
53040;SDS011;39326;42.650;23.248;2023-05-21T03:09:58;12.87;;;11.63;;
53040;SDS011;39326;42.650;23.248;2023-05-21T03:12:24;13.60;;;12.50;;
53040;SDS011;39326;42.650;23.248;2023-05-21T03:14:49;12.13;;;11.03;;
53040;SDS011;39326;42.650;23.248;2023-05-21T03:17:15;12.50;;;11.40;;
53040;SDS011;39326;42.650;23.248;2023-05-21T03:19:42;14.47;;;12.93;;
53040;SDS011;39326;42.650;23.248;2023-05-21T03:22:08;14.30;;;12.90;;
53040;SDS011;39326;42.650;23.248;2023-05-21T03:24:34;14.20;;;12.70;;
53040;SDS011;39326;42.650;23.248;2023-05-21T03:27:00;12.27;;;11.27;;
53040;SDS011;39326;42.650;23.248;2023-05-21T03:29:26;14.43;;;13.10;;
53040;SDS011;39326;42.650;23.248;2023-05-21T03:31:52;14.03;;;12.53;;
53040;SDS011;39326;42.650;23.248;2023-05-21T03:34:19;14.80;;;13.30;;
53040;SDS011;39326;42.650;23.248;2023-05-21T03:36:45;15.37;;;13.90;;
53040;SDS011;39326;42.650;23.248;2023-05-21T03:39:11;15.03;;;13.73;;
53040;SDS011;39326;42.650;23.248;2023-05-21T03:41:37;13.13;;;11.93;;
53040;SDS011;39326;42.650;23.248;2023-05-21T03:44:02;14.43;;;12.97;;
53040;SDS011;39326;42.650;23.248;2023-05-21T03:46:28;21.77;;;14.33;;
53040;SDS011;39326;42.650;23.248;2023-05-21T03:48:53;14.53;;;12.50;;
53040;SDS011;39326;42.650;23.248;2023-05-21T03:51:18;12.53;;;11.30;;
53040;SDS011;39326;42.650;23.248;2023-05-21T03:53:44;13.43;;;12.23;;
53040;SDS011;39326;42.650;23.248;2023-05-21T03:56:10;13.33;;;12.03;;
53040;SDS011;39326;42.650;23.248;2023-05-21T03:58:35;13.70;;;12.37;;
53040;SDS011;39326;42.650;23.248;2023-05-21T04:01:01;17.20;;;11.67;;
53040;SDS011;39326;42.650;23.248;2023-05-21T04:03:28;23.60;;;13.23;;
53040;SDS011;39326;42.650;23.248;2023-05-21T04:05:54;17.23;;;12.53;;
53040;SDS011;39326;42.650;23.248;2023-05-21T04:08:20;15.97;;;10.90;;
53040;SDS011;39326;42.650;23.248;2023-05-21T04:10:45;12.23;;;10.90;;
53040;SDS011;39326;42.650;23.248;2023-05-21T04:13:11;11.87;;;10.63;;
53040;SDS011;39326;42.650;23.248;2023-05-21T04:15:36;11.77;;;10.67;;
53040;SDS011;39326;42.650;23.248;2023-05-21T04:18:02;15.07;;;10.80;;
53040;SDS011;39326;42.650;23.248;2023-05-21T04:20:29;11.90;;;10.20;;
53040;SDS011;39326;42.650;23.248;2023-05-21T04:22:54;10.90;;;9.90;;
53040;SDS011;39326;42.650;23.248;2023-05-21T04:25:19;11.00;;;10.10;;
53040;SDS011;39326;42.650;23.248;2023-05-21T04:27:47;12.57;;;10.77;;
53040;SDS011;39326;42.650;23.248;2023-05-21T04:30:12;11.87;;;10.67;;
53040;SDS011;39326;42.650;23.248;2023-05-21T04:32:38;11.63;;;10.47;;
53040;SDS011;39326;42.650;23.248;2023-05-21T04:35:03;9.73;;;8.77;;
53040;SDS011;39326;42.650;23.248;2023-05-21T04:37:29;10.80;;;9.90;;
53040;SDS011;39326;42.650;23.248;2023-05-21T04:39:56;15.30;;;10.67;;
53040;SDS011;39326;42.650;23.248;2023-05-21T04:42:21;12.30;;;11.00;;
53040;SDS011;39326;42.650;23.248;2023-05-21T04:44:48;9.60;;;8.67;;
53040;SDS011;39326;42.650;23.248;2023-05-21T04:47:13;9.90;;;8.90;;
53040;SDS011;39326;42.650;23.248;2023-05-21T04:49:39;10.53;;;9.43;;
53040;SDS011;39326;42.650;23.248;2023-05-21T04:52:05;8.90;;;8.10;;
53040;SDS011;39326;42.650;23.248;2023-05-21T04:54:30;10.27;;;9.27;;
53040;SDS011;39326;42.650;23.248;2023-05-21T04:56:55;9.60;;;8.70;;
53040;SDS011;39326;42.650;23.248;2023-05-21T04:59:22;9.93;;;9.03;;
53040;SDS011;39326;42.650;23.248;2023-05-21T05:01:47;9.97;;;9.00;;
53040;SDS011;39326;42.650;23.248;2023-05-21T05:04:13;10.17;;;9.17;;
53040;SDS011;39326;42.650;23.248;2023-05-21T05:06:38;10.30;;;9.30;;
53040;SDS011;39326;42.650;23.248;2023-05-21T05:09:03;10.50;;;9.27;;
53040;SDS011;39326;42.650;23.248;2023-05-21T05:11:29;9.83;;;8.93;;
53040;SDS011;39326;42.650;23.248;2023-05-21T05:13:54;9.77;;;8.80;;
53040;SDS011;39326;42.650;23.248;2023-05-21T05:16:20;10.10;;;9.10;;
53040;SDS011;39326;42.650;23.248;2023-05-21T05:18:52;9.97;;;8.80;;
53040;SDS011;39326;42.650;23.248;2023-05-21T05:21:19;10.73;;;9.60;;
53040;SDS011;39326;42.650;23.248;2023-05-21T05:23:46;7.87;;;7.03;;
53040;SDS011;39326;42.650;23.248;2023-05-21T05:26:12;10.13;;;8.67;;
53040;SDS011;39326;42.650;23.248;2023-05-21T05:28:37;10.83;;;9.70;;
53040;SDS011;39326;42.650;23.248;2023-05-21T05:31:03;11.47;;;9.43;;
53040;SDS011;39326;42.650;23.248;2023-05-21T05:33:28;12.37;;;11.07;;
53040;SDS011;39326;42.650;23.248;2023-05-21T05:35:53;11.23;;;9.77;;
53040;SDS011;39326;42.650;23.248;2023-05-21T05:38:19;12.10;;;11.00;;
53040;SDS011;39326;42.650;23.248;2023-05-21T05:40:44;12.30;;;10.70;;
53040;SDS011;39326;42.650;23.248;2023-05-21T05:43:10;10.83;;;9.30;;
53040;SDS011;39326;42.650;23.248;2023-05-21T05:45:35;10.03;;;9.13;;
53040;SDS011;39326;42.650;23.248;2023-05-21T05:48:01;12.00;;;10.33;;
53040;SDS011;39326;42.650;23.248;2023-05-21T05:50:26;13.20;;;11.93;;
53040;SDS011;39326;42.650;23.248;2023-05-21T05:52:52;14.17;;;12.27;;
53040;SDS011;39326;42.650;23.248;2023-05-21T05:55:17;12.80;;;11.50;;
53040;SDS011;39326;42.650;23.248;2023-05-21T05:57:43;13.63;;;12.23;;
53040;SDS011;39326;42.650;23.248;2023-05-21T06:00:08;13.27;;;11.30;;
53040;SDS011;39326;42.650;23.248;2023-05-21T06:02:34;13.63;;;10.20;;
53040;SDS011;39326;42.650;23.248;2023-05-21T06:05:01;12.33;;;11.23;;
53040;SDS011;39326;42.650;23.248;2023-05-21T06:07:26;12.13;;;10.83;;
53040;SDS011;39326;42.650;23.248;2023-05-21T06:09:52;11.47;;;10.47;;
53040;SDS011;39326;42.650;23.248;2023-05-21T06:12:17;11.93;;;9.60;;
53040;SDS011;39326;42.650;23.248;2023-05-21T06:14:43;13.90;;;10.57;;
53040;SDS011;39326;42.650;23.248;2023-05-21T06:17:10;11.53;;;10.33;;
53040;SDS011;39326;42.650;23.248;2023-05-21T06:19:35;14.67;;;10.67;;
53040;SDS011;39326;42.650;23.248;2023-05-21T06:22:01;12.50;;;10.07;;
53040;SDS011;39326;42.650;23.248;2023-05-21T06:24:26;11.90;;;8.60;;
53040;SDS011;39326;42.650;23.248;2023-05-21T06:26:52;8.63;;;7.70;;
53040;SDS011;39326;42.650;23.248;2023-05-21T06:29:17;8.40;;;6.27;;
53040;SDS011;39326;42.650;23.248;2023-05-21T06:31:42;9.13;;;5.57;;
53040;SDS011;39326;42.650;23.248;2023-05-21T06:34:08;5.03;;;4.53;;
53040;SDS011;39326;42.650;23.248;2023-05-21T06:36:35;6.10;;;4.63;;
53040;SDS011;39326;42.650;23.248;2023-05-21T06:39:01;9.70;;;5.07;;
53040;SDS011;39326;42.650;23.248;2023-05-21T06:41:27;5.93;;;5.22;;
53040;SDS011;39326;42.650;23.248;2023-05-21T06:43:52;8.53;;;5.30;;
53040;SDS011;39326;42.650;23.248;2023-05-21T06:46:18;7.50;;;4.97;;
53040;SDS011;39326;42.650;23.248;2023-05-21T06:48:43;4.87;;;4.47;;
53040;SDS011;39326;42.650;23.248;2023-05-21T06:51:10;9.20;;;4.93;;
53040;SDS011;39326;42.650;23.248;2023-05-21T06:53:35;6.40;;;4.93;;
53040;SDS011;39326;42.650;23.248;2023-05-21T06:56:01;7.03;;;4.50;;
53040;SDS011;39326;42.650;23.248;2023-05-21T06:58:26;4.97;;;4.43;;
53040;SDS011;39326;42.650;23.248;2023-05-21T07:00:55;8.48;;;4.85;;
53040;SDS011;39326;42.650;23.248;2023-05-21T07:03:21;6.50;;;4.63;;
53040;SDS011;39326;42.650;23.248;2023-05-21T07:05:46;5.53;;;4.53;;
53040;SDS011;39326;42.650;23.248;2023-05-21T07:08:12;6.60;;;4.55;;
53040;SDS011;39326;42.650;23.248;2023-05-21T07:10:37;8.00;;;4.77;;
53040;SDS011;39326;42.650;23.248;2023-05-21T07:13:03;7.30;;;4.95;;
53040;SDS011;39326;42.650;23.248;2023-05-21T07:15:28;10.00;;;5.33;;
53040;SDS011;39326;42.650;23.248;2023-05-21T07:17:54;7.50;;;4.88;;
53040;SDS011;39326;42.650;23.248;2023-05-21T07:20:19;7.07;;;4.80;;
53040;SDS011;39326;42.650;23.248;2023-05-21T07:22:44;5.80;;;5.30;;
53040;SDS011;39326;42.650;23.248;2023-05-21T07:25:10;5.90;;;4.72;;
53040;SDS011;39326;42.650;23.248;2023-05-21T07:27:35;5.88;;;4.85;;
53040;SDS011;39326;42.650;23.248;2023-05-21T07:30:01;8.27;;;5.03;;
53040;SDS011;39326;42.650;23.248;2023-05-21T07:32:26;6.10;;;4.45;;
53040;SDS011;39326;42.650;23.248;2023-05-21T07:34:53;6.70;;;4.88;;
53040;SDS011;39326;42.650;23.248;2023-05-21T07:37:19;7.07;;;4.75;;
53040;SDS011;39326;42.650;23.248;2023-05-21T07:39:45;5.60;;;4.22;;
53040;SDS011;39326;42.650;23.248;2023-05-21T07:42:10;6.05;;;5.18;;
53040;SDS011;39326;42.650;23.248;2023-05-21T07:44:36;8.88;;;4.72;;
53040;SDS011;39326;42.650;23.248;2023-05-21T07:47:01;5.85;;;4.65;;
53040;SDS011;39326;42.650;23.248;2023-05-21T07:49:27;5.63;;;4.97;;
53040;SDS011;39326;42.650;23.248;2023-05-21T07:51:52;5.40;;;4.90;;
53040;SDS011;39326;42.650;23.248;2023-05-21T07:54:17;7.78;;;5.70;;
53040;SDS011;39326;42.650;23.248;2023-05-21T07:56:43;6.22;;;5.03;;
53040;SDS011;39326;42.650;23.248;2023-05-21T07:59:09;8.02;;;4.95;;
53040;SDS011;39326;42.650;23.248;2023-05-21T08:01:34;9.38;;;4.70;;
53040;SDS011;39326;42.650;23.248;2023-05-21T08:04:01;6.50;;;4.13;;
53040;SDS011;39326;42.650;23.248;2023-05-21T08:06:30;8.32;;;4.68;;
53040;SDS011;39326;42.650;23.248;2023-05-21T08:08:58;7.28;;;4.35;;
53040;SDS011;39326;42.650;23.248;2023-05-21T08:11:25;6.30;;;4.45;;
53040;SDS011;39326;42.650;23.248;2023-05-21T08:13:51;7.95;;;5.45;;
53040;SDS011;39326;42.650;23.248;2023-05-21T08:16:17;7.03;;;4.55;;
53040;SDS011;39326;42.650;23.248;2023-05-21T08:18:42;5.60;;;4.63;;
53040;SDS011;39326;42.650;23.248;2023-05-21T08:21:07;9.70;;;4.88;;
53040;SDS011;39326;42.650;23.248;2023-05-21T08:23:33;8.18;;;4.95;;
53040;SDS011;39326;42.650;23.248;2023-05-21T08:25:58;6.18;;;4.40;;
53040;SDS011;39326;42.650;23.248;2023-05-21T08:28:24;8.45;;;4.15;;
53040;SDS011;39326;42.650;23.248;2023-05-21T08:30:51;8.25;;;4.60;;
53040;SDS011;39326;42.650;23.248;2023-05-21T08:33:16;4.93;;;4.30;;
53040;SDS011;39326;42.650;23.248;2023-05-21T08:35:42;6.85;;;4.05;;
53040;SDS011;39326;42.650;23.248;2023-05-21T08:38:07;9.10;;;4.15;;
53040;SDS011;39326;42.650;23.248;2023-05-21T08:40:33;6.15;;;4.13;;
53040;SDS011;39326;42.650;23.248;2023-05-21T08:42:59;6.13;;;4.40;;
53040;SDS011;39326;42.650;23.248;2023-05-21T08:45:25;11.55;;;4.78;;
53040;SDS011;39326;42.650;23.248;2023-05-21T08:47:54;7.00;;;4.18;;
53040;SDS011;39326;42.650;23.248;2023-05-21T08:50:21;5.38;;;3.95;;
53040;SDS011;39326;42.650;23.248;2023-05-21T08:52:50;7.90;;;4.30;;
53040;SDS011;39326;42.650;23.248;2023-05-21T08:55:16;5.30;;;4.28;;
53040;SDS011;39326;42.650;23.248;2023-05-21T08:57:45;7.75;;;4.90;;
53040;SDS011;39326;42.650;23.248;2023-05-21T09:00:10;6.90;;;4.32;;
53040;SDS011;39326;42.650;23.248;2023-05-21T09:02:36;6.63;;;4.18;;
53040;SDS011;39326;42.650;23.248;2023-05-21T09:05:05;6.30;;;4.38;;
53040;SDS011;39326;42.650;23.248;2023-05-21T09:07:33;4.90;;;4.07;;
53040;SDS011;39326;42.650;23.248;2023-05-21T09:10:33;6.95;;;4.40;;
53040;SDS011;39326;42.650;23.248;2023-05-21T09:13:01;7.88;;;4.68;;
53040;SDS011;39326;42.650;23.248;2023-05-21T09:15:27;5.80;;;5.10;;
53040;SDS011;39326;42.650;23.248;2023-05-21T09:17:53;6.07;;;4.57;;
53040;SDS011;39326;42.650;23.248;2023-05-21T09:20:23;4.47;;;4.07;;
53040;SDS011;39326;42.650;23.248;2023-05-21T09:22:50;6.75;;;4.65;;
53040;SDS011;39326;42.650;23.248;2023-05-21T09:25:16;7.93;;;4.93;;
53040;SDS011;39326;42.650;23.248;2023-05-21T09:27:45;4.85;;;4.35;;
53040;SDS011;39326;42.650;23.248;2023-05-21T09:30:12;5.35;;;4.15;;
53040;SDS011;39326;42.650;23.248;2023-05-21T09:32:39;4.40;;;3.70;;
53040;SDS011;39326;42.650;23.248;2023-05-21T09:35:09;6.13;;;4.38;;
53040;SDS011;39326;42.650;23.248;2023-05-21T09:37:42;4.20;;;3.75;;
53040;SDS011;39326;42.650;23.248;2023-05-21T09:42:46;5.47;;;3.83;;
53040;SDS011;39326;42.650;23.248;2023-05-21T09:45:23;4.95;;;3.33;;
53040;SDS011;39326;42.650;23.248;2023-05-21T09:47:50;6.30;;;3.22;;
53040;SDS011;39326;42.650;23.248;2023-05-21T09:52:46;5.82;;;3.70;;
53040;SDS011;39326;42.650;23.248;2023-05-21T09:55:22;3.63;;;3.30;;
53040;SDS011;39326;42.650;23.248;2023-05-21T09:57:49;5.15;;;3.53;;
53040;SDS011;39326;42.650;23.248;2023-05-21T10:00:33;4.55;;;3.83;;
53040;SDS011;39326;42.650;23.248;2023-05-21T10:03:06;5.47;;;3.72;;
53040;SDS011;39326;42.650;23.248;2023-05-21T10:05:36;5.38;;;3.65;;
53040;SDS011;39326;42.650;23.248;2023-05-21T10:08:02;5.57;;;3.65;;
53040;SDS011;39326;42.650;23.248;2023-05-21T10:10:29;9.57;;;4.03;;
53040;SDS011;39326;42.650;23.248;2023-05-21T10:12:59;5.05;;;3.78;;
53040;SDS011;39326;42.650;23.248;2023-05-21T10:15:27;6.85;;;4.18;;
53040;SDS011;39326;42.650;23.248;2023-05-21T10:17:57;4.93;;;3.72;;
53040;SDS011;39326;42.650;23.248;2023-05-21T10:20:25;6.25;;;3.95;;
53040;SDS011;39326;42.650;23.248;2023-05-21T10:22:50;4.03;;;3.45;;
53040;SDS011;39326;42.650;23.248;2023-05-21T10:25:17;4.72;;;4.05;;
53040;SDS011;39326;42.650;23.248;2023-05-21T10:27:44;7.97;;;3.92;;
53040;SDS011;39326;42.650;23.248;2023-05-21T10:30:11;4.70;;;3.47;;
53040;SDS011;39326;42.650;23.248;2023-05-21T10:32:36;5.60;;;3.10;;
53040;SDS011;39326;42.650;23.248;2023-05-21T10:35:04;6.45;;;3.53;;
53040;SDS011;39326;42.650;23.248;2023-05-21T10:37:32;5.88;;;4.10;;
53040;SDS011;39326;42.650;23.248;2023-05-21T10:39:58;5.72;;;4.15;;
53040;SDS011;39326;42.650;23.248;2023-05-21T10:44:59;6.05;;;3.90;;
53040;SDS011;39326;42.650;23.248;2023-05-21T10:53:31;6.53;;;4.07;;
53040;SDS011;39326;42.650;23.248;2023-05-21T10:56:23;5.53;;;4.13;;
53040;SDS011;39326;42.650;23.248;2023-05-21T11:01:18;5.40;;;4.20;;
53040;SDS011;39326;42.650;23.248;2023-05-21T11:03:45;4.38;;;3.97;;
53040;SDS011;39326;42.650;23.248;2023-05-21T11:06:12;7.97;;;4.10;;
53040;SDS011;39326;42.650;23.248;2023-05-21T11:08:46;5.97;;;4.07;;
53040;SDS011;39326;42.650;23.248;2023-05-21T11:11:12;5.80;;;4.53;;
53040;SDS011;39326;42.650;23.248;2023-05-21T11:13:45;7.25;;;5.00;;
53040;SDS011;39326;42.650;23.248;2023-05-21T11:16:13;6.55;;;4.10;;
53040;SDS011;39326;42.650;23.248;2023-05-21T11:21:05;6.07;;;4.00;;
53040;SDS011;39326;42.650;23.248;2023-05-21T11:26:22;5.93;;;4.07;;
53040;SDS011;39326;42.650;23.248;2023-05-21T11:31:29;4.80;;;4.28;;
53040;SDS011;39326;42.650;23.248;2023-05-21T11:34:15;4.95;;;3.88;;
53040;SDS011;39326;42.650;23.248;2023-05-21T11:36:44;6.80;;;4.20;;
53040;SDS011;39326;42.650;23.248;2023-05-21T11:39:17;5.32;;;4.22;;
53040;SDS011;39326;42.650;23.248;2023-05-21T11:44:16;6.55;;;4.60;;
53040;SDS011;39326;42.650;23.248;2023-05-21T11:46:42;6.88;;;4.55;;
53040;SDS011;39326;42.650;23.248;2023-05-21T11:49:07;5.35;;;4.35;;
53040;SDS011;39326;42.650;23.248;2023-05-21T11:51:33;6.22;;;4.47;;
53040;SDS011;39326;42.650;23.248;2023-05-21T11:54:00;6.53;;;4.32;;
53040;SDS011;39326;42.650;23.248;2023-05-21T11:56:27;5.30;;;4.25;;
53040;SDS011;39326;42.650;23.248;2023-05-21T11:58:56;6.85;;;4.57;;
53040;SDS011;39326;42.650;23.248;2023-05-21T12:01:23;5.45;;;4.50;;
53040;SDS011;39326;42.650;23.248;2023-05-21T12:03:50;5.45;;;4.32;;
53040;SDS011;39326;42.650;23.248;2023-05-21T12:06:16;6.22;;;4.55;;
53040;SDS011;39326;42.650;23.248;2023-05-21T12:08:42;5.38;;;4.22;;
53040;SDS011;39326;42.650;23.248;2023-05-21T12:11:09;8.45;;;4.95;;
53040;SDS011;39326;42.650;23.248;2023-05-21T12:13:35;5.93;;;5.10;;
53040;SDS011;39326;42.650;23.248;2023-05-21T12:16:01;6.60;;;4.72;;
53040;SDS011;39326;42.650;23.248;2023-05-21T12:18:27;6.00;;;4.90;;
53040;SDS011;39326;42.650;23.248;2023-05-21T12:20:52;6.38;;;4.93;;
53040;SDS011;39326;42.650;23.248;2023-05-21T12:23:24;6.70;;;5.22;;
53040;SDS011;39326;42.650;23.248;2023-05-21T12:25:50;6.13;;;4.72;;
53040;SDS011;39326;42.650;23.248;2023-05-21T12:28:17;8.02;;;5.18;;
53040;SDS011;39326;42.650;23.248;2023-05-21T12:30:44;6.18;;;4.82;;
53040;SDS011;39326;42.650;23.248;2023-05-21T12:33:10;5.35;;;4.85;;
53040;SDS011;39326;42.650;23.248;2023-05-21T12:35:36;5.15;;;4.72;;
53040;SDS011;39326;42.650;23.248;2023-05-21T12:38:01;11.25;;;6.93;;
53040;SDS011;39326;42.650;23.248;2023-05-21T12:40:37;8.40;;;6.38;;
53040;SDS011;39326;42.650;23.248;2023-05-21T12:43:03;7.45;;;5.95;;
53040;SDS011;39326;42.650;23.248;2023-05-21T12:45:29;7.32;;;5.18;;
53040;SDS011;39326;42.650;23.248;2023-05-21T12:47:56;7.50;;;4.70;;
53040;SDS011;39326;42.650;23.248;2023-05-21T12:50:25;6.10;;;4.82;;
53040;SDS011;39326;42.650;23.248;2023-05-21T12:52:54;6.15;;;4.90;;
53040;SDS011;39326;42.650;23.248;2023-05-21T12:55:21;5.63;;;5.13;;
53040;SDS011;39326;42.650;23.248;2023-05-21T12:57:48;6.10;;;4.65;;
53040;SDS011;39326;42.650;23.248;2023-05-21T13:00:15;6.63;;;5.10;;
53040;SDS011;39326;42.650;23.248;2023-05-21T13:02:48;6.10;;;4.90;;
53040;SDS011;39326;42.650;23.248;2023-05-21T13:05:16;5.30;;;4.80;;
53040;SDS011;39326;42.650;23.248;2023-05-21T13:07:42;5.60;;;4.68;;
53040;SDS011;39326;42.650;23.248;2023-05-21T13:10:10;5.82;;;4.60;;
53040;SDS011;39326;42.650;23.248;2023-05-21T13:12:36;6.93;;;4.82;;
53040;SDS011;39326;42.650;23.248;2023-05-21T13:15:03;5.82;;;5.18;;
53040;SDS011;39326;42.650;23.248;2023-05-21T13:17:30;5.30;;;4.88;;
53040;SDS011;39326;42.650;23.248;2023-05-21T13:22:36;6.95;;;5.25;;
53040;SDS011;39326;42.650;23.248;2023-05-21T13:25:06;7.22;;;5.13;;
53040;SDS011;39326;42.650;23.248;2023-05-21T13:27:32;5.68;;;5.18;;
53040;SDS011;39326;42.650;23.248;2023-05-21T13:29:58;9.02;;;5.22;;
53040;SDS011;39326;42.650;23.248;2023-05-21T13:32:23;5.80;;;4.93;;
53040;SDS011;39326;42.650;23.248;2023-05-21T13:34:49;5.93;;;4.78;;
53040;SDS011;39326;42.650;23.248;2023-05-21T13:37:14;5.28;;;4.80;;
53040;SDS011;39326;42.650;23.248;2023-05-21T13:39:39;7.07;;;4.95;;
53040;SDS011;39326;42.650;23.248;2023-05-21T13:42:05;7.63;;;4.78;;
53040;SDS011;39326;42.650;23.248;2023-05-21T13:44:34;5.40;;;4.90;;
53040;SDS011;39326;42.650;23.248;2023-05-21T13:47:06;7.10;;;5.38;;
53040;SDS011;39326;42.650;23.248;2023-05-21T13:49:33;6.32;;;5.53;;
53040;SDS011;39326;42.650;23.248;2023-05-21T13:51:59;6.68;;;5.53;;
53040;SDS011;39326;42.650;23.248;2023-05-21T13:54:25;6.57;;;5.60;;
53040;SDS011;39326;42.650;23.248;2023-05-21T13:56:51;8.60;;;5.78;;
53040;SDS011;39326;42.650;23.248;2023-05-21T13:59:17;7.35;;;5.38;;
53040;SDS011;39326;42.650;23.248;2023-05-21T14:01:42;6.35;;;5.40;;
53040;SDS011;39326;42.650;23.248;2023-05-21T14:04:12;7.78;;;5.30;;
53040;SDS011;39326;42.650;23.248;2023-05-21T14:06:38;7.25;;;5.28;;
53040;SDS011;39326;42.650;23.248;2023-05-21T14:09:05;7.25;;;5.15;;
53040;SDS011;39326;42.650;23.248;2023-05-21T14:11:31;7.15;;;4.93;;
53040;SDS011;39326;42.650;23.248;2023-05-21T14:13:56;6.63;;;4.78;;
53040;SDS011;39326;42.650;23.248;2023-05-21T14:16:23;5.07;;;4.50;;
53040;SDS011;39326;42.650;23.248;2023-05-21T14:18:51;5.22;;;4.65;;
53040;SDS011;39326;42.650;23.248;2023-05-21T14:21:19;8.50;;;5.47;;
53040;SDS011;39326;42.650;23.248;2023-05-21T14:23:45;5.97;;;4.85;;
53040;SDS011;39326;42.650;23.248;2023-05-21T14:26:11;10.98;;;4.97;;
53040;SDS011;39326;42.650;23.248;2023-05-21T14:28:37;9.13;;;5.57;;
53040;SDS011;39326;42.650;23.248;2023-05-21T14:31:02;7.60;;;5.28;;
53040;SDS011;39326;42.650;23.248;2023-05-21T14:33:29;5.60;;;4.43;;
53040;SDS011;39326;42.650;23.248;2023-05-21T14:35:55;6.72;;;4.63;;
53040;SDS011;39326;42.650;23.248;2023-05-21T14:38:21;6.40;;;4.15;;
53040;SDS011;39326;42.650;23.248;2023-05-21T14:40:46;5.40;;;4.80;;
53040;SDS011;39326;42.650;23.248;2023-05-21T14:43:11;5.93;;;4.60;;
53040;SDS011;39326;42.650;23.248;2023-05-21T14:45:37;9.43;;;5.03;;
53040;SDS011;39326;42.650;23.248;2023-05-21T14:48:02;4.80;;;4.40;;
53040;SDS011;39326;42.650;23.248;2023-05-21T14:50:36;6.80;;;4.60;;
53040;SDS011;39326;42.650;23.248;2023-05-21T14:53:02;4.70;;;4.28;;
53040;SDS011;39326;42.650;23.248;2023-05-21T14:55:31;7.55;;;4.65;;